createdAt,value
2023-03-30T00:00:51.795Z,85.14
2023-03-30T00:03:19.681Z,85.58
2023-03-30T00:05:51.765Z,85.47
2023-03-30T00:08:19.194Z,85.14
2023-03-30T00:10:46.369Z,85.46
2023-03-30T00:13:13.297Z,85.78
2023-03-30T00:15:41.406Z,85.13
2023-03-30T00:18:09.451Z,83.88
2023-03-30T00:20:37.828Z,83.24
2023-03-30T00:23:04.594Z,83.38
2023-03-30T00:25:31.347Z,83.49
2023-03-30T00:27:57.955Z,83.05
2023-03-30T00:30:24.442Z,82.14
2023-03-30T00:32:51.335Z,81.90
2023-03-30T00:35:18.030Z,80.92
2023-03-30T00:37:45.871Z,80.22
2023-03-30T00:40:19.337Z,80.37
2023-03-30T00:42:47.196Z,79.71
2023-03-30T00:45:23.418Z,79.40
2023-03-30T00:47:59.023Z,80.01
2023-03-30T00:50:43.922Z,80.43
2023-03-30T00:53:20.875Z,80.73
2023-03-30T00:55:50.692Z,80.05
2023-03-30T00:58:18.415Z,78.78
2023-03-30T01:00:47.390Z,78.58
2023-03-30T01:03:22.917Z,78.50
2023-03-30T01:05:51.555Z,78.70
2023-03-30T01:08:19.376Z,78.32
2023-03-30T01:10:46.051Z,78.67
2023-03-30T01:13:14.840Z,78.44
2023-03-30T01:15:53.544Z,78.58
2023-03-30T01:18:33.276Z,78.56
2023-03-30T01:21:24.617Z,78.94
2023-03-30T01:24:08.045Z,78.37
2023-03-30T01:26:54.418Z,78.29
2023-03-30T01:29:27.669Z,78.68
2023-03-30T01:32:12.888Z,78.59
2023-03-30T01:35:06.042Z,78.60
2023-03-30T01:37:44.614Z,79.29
2023-03-30T01:40:20.273Z,79.34
2023-03-30T01:43:07.389Z,78.97
2023-03-30T01:45:43.768Z,78.69
2023-03-30T01:48:44.710Z,78.71
2023-03-30T01:51:20.315Z,78.85
2023-03-30T01:53:58.193Z,79.07
2023-03-30T01:56:44.283Z,78.74
2023-03-30T01:59:28.979Z,77.92
2023-03-30T02:02:00.681Z,77.68
2023-03-30T02:04:29.682Z,77.45
2023-03-30T02:07:00.943Z,77.62
2023-03-30T02:09:29.839Z,77.23
2023-03-30T02:11:56.736Z,77.84
2023-03-30T02:14:28.026Z,78.13
2023-03-30T02:17:00.682Z,78.84
2023-03-30T02:19:28.068Z,78.69
2023-03-30T02:21:55.321Z,78.49
2023-03-30T02:24:27.289Z,78.39
2023-03-30T02:26:55.170Z,79.22
2023-03-30T02:29:23.081Z,79.35
2023-03-30T02:31:53.384Z,79.03
2023-03-30T02:34:37.158Z,79.48
2023-03-30T02:37:26.479Z,79.96
2023-03-30T02:40:22.267Z,79.40
2023-03-30T02:43:14.460Z,79.48
2023-03-30T02:45:49.071Z,79.61
2023-03-30T02:48:19.066Z,79.69
2023-03-30T02:50:54.733Z,79.91
2023-03-30T02:53:32.662Z,79.71
2023-03-30T02:56:27.730Z,79.79
2023-03-30T02:59:00.659Z,79.31
2023-03-30T03:01:39.850Z,79.26
2023-03-30T03:04:07.953Z,79.32
2023-03-30T03:06:34.557Z,79.41
2023-03-30T03:09:01.781Z,79.32
2023-03-30T03:11:28.404Z,79.44
2023-03-30T03:13:55.800Z,79.87
2023-03-30T03:16:22.966Z,79.99
2023-03-30T03:18:49.758Z,80.42
2023-03-30T03:21:16.605Z,80.01
2023-03-30T03:23:43.394Z,79.87
2023-03-30T03:26:11.845Z,80.50
2023-03-30T03:28:38.359Z,80.33
2023-03-30T03:31:06.868Z,80.36
2023-03-30T03:33:33.803Z,80.78
2023-03-30T03:36:01.114Z,80.51
2023-03-30T03:38:28.771Z,80.51
2023-03-30T03:40:58.471Z,80.07
2023-03-30T03:43:26.289Z,80.13
2023-03-30T03:45:53.774Z,79.61
2023-03-30T03:48:23.606Z,80.29
2023-03-30T03:50:56.651Z,80.49
2023-03-30T03:53:26.140Z,79.84
2023-03-30T03:55:52.594Z,80.21
2023-03-30T03:58:19.190Z,79.94
2023-03-30T04:00:46.523Z,80.04
2023-03-30T04:03:13.539Z,79.51
2023-03-30T04:05:41.120Z,79.46
2023-03-30T04:08:11.999Z,79.98
2023-03-30T04:10:39.952Z,79.11
2023-03-30T04:13:07.017Z,78.99
2023-03-30T04:15:33.786Z,78.67
2023-03-30T04:18:00.492Z,78.51
2023-03-30T04:20:29.009Z,80.95
2023-03-30T04:22:57.053Z,83.09
2023-03-30T04:25:25.858Z,85.54
2023-03-30T04:27:53.341Z,85.00
2023-03-30T04:30:20.801Z,87.45
2023-03-30T04:32:54.888Z,88.93
2023-03-30T04:35:21.540Z,89.96
2023-03-30T04:37:52.429Z,90.11
2023-03-30T04:40:19.873Z,88.98
2023-03-30T04:42:50.190Z,89.21
2023-03-30T04:45:20.825Z,89.31
2023-03-30T04:47:47.737Z,91.21
2023-03-30T04:50:15.177Z,93.83
2023-03-30T04:52:41.920Z,96.64
2023-03-30T04:55:10.130Z,98.30
2023-03-30T04:57:36.841Z,99.71
2023-03-30T05:00:07.888Z,100.00
2023-03-30T05:02:34.481Z,100.00
2023-03-30T05:05:01.026Z,100.00
2023-03-30T05:07:27.534Z,100.00
2023-03-30T05:09:54.172Z,100.00
2023-03-30T05:12:21.372Z,100.00
2023-03-30T05:14:48.229Z,100.00
2023-03-30T05:17:14.848Z,100.00
2023-03-30T05:19:41.456Z,100.00
2023-03-30T05:22:07.947Z,100.00
2023-03-30T05:24:34.543Z,100.00
2023-03-30T05:27:02.317Z,100.00
2023-03-30T05:29:29.022Z,100.00
2023-03-30T05:31:55.535Z,100.00
2023-03-30T05:34:21.966Z,100.00
2023-03-30T05:36:48.633Z,100.00
2023-03-30T05:39:15.342Z,100.00
2023-03-30T05:41:42.023Z,100.00
2023-03-30T05:44:08.507Z,100.00
2023-03-30T05:46:35.011Z,100.00
2023-03-30T05:49:01.463Z,100.00
2023-03-30T05:51:27.998Z,100.00
2023-03-30T05:53:54.487Z,100.00
2023-03-30T05:56:21.876Z,100.00
2023-03-30T05:58:48.354Z,100.00
2023-03-30T06:01:15.172Z,100.00
2023-03-30T06:03:42.429Z,100.00
2023-03-30T06:06:09.540Z,100.00
2023-03-30T06:08:36.264Z,100.00
2023-03-30T06:11:03.212Z,100.00
2023-03-30T06:13:30.116Z,99.85
2023-03-30T06:15:57.160Z,98.83
2023-03-30T06:18:24.350Z,98.57
2023-03-30T06:20:51.947Z,97.65
2023-03-30T06:23:18.892Z,98.56
2023-03-30T06:25:47.506Z,96.86
2023-03-30T06:28:14.292Z,95.66
2023-03-30T06:30:41.252Z,93.99
2023-03-30T06:33:08.171Z,92.99
2023-03-30T06:35:35.041Z,93.95
2023-03-30T06:38:01.666Z,95.01
2023-03-30T06:40:28.448Z,95.34
2023-03-30T06:42:55.374Z,94.83
2023-03-30T06:45:22.101Z,93.82
2023-03-30T06:47:48.922Z,93.42
2023-03-30T06:50:15.625Z,93.24
2023-03-30T06:52:42.347Z,93.11
2023-03-30T06:55:09.857Z,92.31
2023-03-30T06:57:36.692Z,92.43
2023-03-30T07:00:08.882Z,92.85
2023-03-30T07:02:35.680Z,92.64
2023-03-30T07:05:02.357Z,93.00
2023-03-30T07:07:29.493Z,92.54
2023-03-30T07:09:56.156Z,93.25
2023-03-30T07:12:22.636Z,91.55
2023-03-30T07:14:49.192Z,91.39
2023-03-30T07:17:16.253Z,90.44
2023-03-30T07:19:42.774Z,90.28
2023-03-30T07:22:09.799Z,91.21
2023-03-30T07:24:36.517Z,88.61
2023-03-30T07:27:03.289Z,89.02
2023-03-30T07:29:30.038Z,90.53
2023-03-30T07:31:57.044Z,89.39
2023-03-30T07:34:24.519Z,87.96
2023-03-30T07:36:51.248Z,88.66
2023-03-30T07:39:18.155Z,88.94
2023-03-30T07:41:45.944Z,89.30
2023-03-30T07:44:12.687Z,90.99
2023-03-30T07:46:39.421Z,91.02
2023-03-30T07:49:06.292Z,91.96
2023-03-30T07:51:33.466Z,91.40
2023-03-30T07:54:00.556Z,91.50
2023-03-30T07:56:27.337Z,92.18
2023-03-30T07:58:53.942Z,91.92
2023-03-30T08:01:21.091Z,93.41
2023-03-30T08:03:48.387Z,94.20
2023-03-30T08:06:15.804Z,94.13
2023-03-30T08:08:43.629Z,94.52
2023-03-30T08:11:11.457Z,95.35
2023-03-30T08:13:38.181Z,95.81
2023-03-30T08:16:04.969Z,97.29
2023-03-30T08:18:31.716Z,98.39
2023-03-30T08:20:58.236Z,100.00
2023-03-30T08:23:24.782Z,99.07
2023-03-30T08:25:52.937Z,99.57
2023-03-30T08:28:21.212Z,99.51
2023-03-30T08:30:48.430Z,99.55
2023-03-30T08:33:15.845Z,99.39
2023-03-30T08:35:49.516Z,99.33
2023-03-30T08:38:17.416Z,98.31
2023-03-30T08:40:46.852Z,98.60
2023-03-30T08:44:01.771Z,98.73
2023-03-30T08:46:29.943Z,97.92
2023-03-30T08:49:01.175Z,98.26
2023-03-30T08:51:29.804Z,99.01
2023-03-30T08:54:07.171Z,99.32
2023-03-30T08:56:46.039Z,99.63
2023-03-30T08:59:33.493Z,100.00
2023-03-30T09:02:20.764Z,98.95
2023-03-30T09:05:14.270Z,99.09
2023-03-30T09:07:48.144Z,98.60
2023-03-30T09:10:15.725Z,97.68
2023-03-30T09:12:47.805Z,99.12
2023-03-30T09:15:22.233Z,97.87
2023-03-30T09:18:00.924Z,97.33
2023-03-30T09:20:30.815Z,96.01
2023-03-30T09:23:02.082Z,94.58
2023-03-30T09:25:35.160Z,95.11
2023-03-30T09:28:31.130Z,93.94
2023-03-30T09:31:08.835Z,95.07
2023-03-30T09:33:46.526Z,95.09
2023-03-30T09:36:47.458Z,91.73
2023-03-30T09:39:22.869Z,90.77
2023-03-30T09:42:21.241Z,88.08
2023-03-30T09:44:58.548Z,83.99
2023-03-30T09:47:28.371Z,82.60
2023-03-30T09:49:56.824Z,84.60
2023-03-30T09:52:26.987Z,85.54
2023-03-30T09:54:53.614Z,86.26
2023-03-30T09:57:25.576Z,87.79
2023-03-30T09:59:55.886Z,87.16
2023-03-30T10:02:25.444Z,86.48
2023-03-30T10:04:58.185Z,85.78
2023-03-30T10:07:36.604Z,85.65
2023-03-30T10:10:28.769Z,85.08
2023-03-30T10:13:02.621Z,85.33
2023-03-30T10:15:32.937Z,85.87
2023-03-30T10:18:26.729Z,86.79
2023-03-30T10:21:16.289Z,87.41
2023-03-30T10:23:45.886Z,85.83
2023-03-30T10:26:21.866Z,83.91
2023-03-30T10:28:57.369Z,82.65
2023-03-30T10:31:27.916Z,83.17
2023-03-30T10:33:59.575Z,83.26
2023-03-30T10:36:32.464Z,82.94
2023-03-30T10:39:25.823Z,83.32
2023-03-30T10:41:54.324Z,84.57
2023-03-30T10:44:30.817Z,84.95
2023-03-30T10:47:21.856Z,86.38
2023-03-30T10:50:28.076Z,85.16
2023-03-30T10:53:05.116Z,83.42
2023-03-30T10:55:50.039Z,83.77
2023-03-30T10:58:21.722Z,83.50
2023-03-30T11:00:59.669Z,81.58
2023-03-30T11:03:29.525Z,82.14
2023-03-30T11:06:07.362Z,80.90
2023-03-30T11:08:40.182Z,80.90
2023-03-30T11:11:13.056Z,80.65
2023-03-30T11:13:49.522Z,82.10
2023-03-30T11:16:18.686Z,81.95
2023-03-30T11:18:57.212Z,82.38
2023-03-30T11:21:51.781Z,81.42
2023-03-30T11:24:21.622Z,81.28
2023-03-30T11:26:56.589Z,80.93
2023-03-30T11:29:26.185Z,81.37
2023-03-30T11:32:17.430Z,80.83
2023-03-30T11:35:24.666Z,80.20
2023-03-30T11:37:58.782Z,78.39
2023-03-30T11:40:28.085Z,78.29
2023-03-30T11:42:55.804Z,77.17
2023-03-30T11:46:04.234Z,78.63
2023-03-30T11:48:39.055Z,79.22
2023-03-30T11:51:26.070Z,80.40
2023-03-30T11:54:35.380Z,79.05
2023-03-30T11:57:17.374Z,77.45
2023-03-30T12:00:21.163Z,75.70
2023-03-30T12:03:14.554Z,77.69
2023-03-30T12:05:53.577Z,79.37
2023-03-30T12:08:37.142Z,78.05
2023-03-30T12:11:22.754Z,75.50
2023-03-30T12:13:52.175Z,75.94
2023-03-30T12:16:32.402Z,74.37
2023-03-30T12:19:17.446Z,75.42
2023-03-30T12:22:07.462Z,75.05
2023-03-30T12:24:40.457Z,76.54
2023-03-30T12:27:11.562Z,76.94
2023-03-30T12:30:02.577Z,77.11
2023-03-30T12:32:31.357Z,77.34
2023-03-30T12:34:59.999Z,77.02
2023-03-30T12:37:37.907Z,76.21
2023-03-30T12:40:22.688Z,74.39
2023-03-30T12:43:21.051Z,73.43
2023-03-30T12:46:10.618Z,73.13
2023-03-30T12:48:48.903Z,72.76
2023-03-30T12:51:18.262Z,71.70
2023-03-30T12:54:00.466Z,71.00
2023-03-30T12:56:44.022Z,68.74
2023-03-30T12:59:25.581Z,68.51
2023-03-30T13:02:11.456Z,67.59
2023-03-30T13:04:43.197Z,67.91
2023-03-30T13:07:22.401Z,68.93
2023-03-30T13:10:06.417Z,69.60
2023-03-30T13:12:38.445Z,67.59
2023-03-30T13:15:30.668Z,69.13
2023-03-30T13:18:23.533Z,70.91
2023-03-30T13:20:56.149Z,69.16
2023-03-30T13:23:22.725Z,75.88
2023-03-30T13:26:02.470Z,84.93
2023-03-30T13:28:59.976Z,96.61
2023-03-30T13:31:45.160Z,100.00
2023-03-30T13:34:43.508Z,100.00
2023-03-30T13:37:29.120Z,100.00
2023-03-30T13:39:58.385Z,100.00
2023-03-30T13:42:53.508Z,100.00
2023-03-30T13:45:33.969Z,100.00
2023-03-30T13:48:09.484Z,100.00
2023-03-30T13:50:36.441Z,100.00
2023-03-30T13:53:09.648Z,100.00
2023-03-30T13:55:39.908Z,100.00
2023-03-30T13:58:12.583Z,100.00
2023-03-30T14:00:49.103Z,100.00
2023-03-30T14:03:49.363Z,100.00
2023-03-30T14:06:17.945Z,100.00
2023-03-30T14:08:48.109Z,100.00
2023-03-30T14:11:18.991Z,100.00
2023-03-30T14:13:49.175Z,100.00
2023-03-30T14:16:33.015Z,100.00
2023-03-30T14:19:27.625Z,100.00
2023-03-30T14:21:59.179Z,100.00
2023-03-30T14:24:34.139Z,100.00
2023-03-30T14:27:15.179Z,100.00
2023-03-30T14:29:47.685Z,100.00
2023-03-30T14:32:16.340Z,100.00
2023-03-30T14:34:51.219Z,100.00
2023-03-30T14:37:21.180Z,100.00
2023-03-30T14:39:56.853Z,100.00
2023-03-30T14:42:31.562Z,100.00
2023-03-30T14:44:58.522Z,100.00
2023-03-30T14:47:27.384Z,100.00
2023-03-30T14:49:57.461Z,100.00
2023-03-30T14:52:30.208Z,100.00
2023-03-30T14:55:08.008Z,99.65
2023-03-30T14:57:39.161Z,98.82
2023-03-30T15:00:17.804Z,98.99
2023-03-30T15:02:45.502Z,98.96
2023-03-30T15:05:15.108Z,95.73
2023-03-30T15:07:41.861Z,94.72
2023-03-30T15:10:21.753Z,96.26
2023-03-30T15:12:49.198Z,91.88
2023-03-30T15:15:21.281Z,93.10
2023-03-30T15:17:50.621Z,91.04
2023-03-30T15:20:18.237Z,90.46
2023-03-30T15:22:49.188Z,88.97
2023-03-30T15:25:21.565Z,88.03
2023-03-30T15:27:56.405Z,87.30
2023-03-30T15:30:29.628Z,88.33
2023-03-30T15:32:57.428Z,85.97
2023-03-30T15:35:31.065Z,85.81
2023-03-30T15:38:13.687Z,86.53
2023-03-30T15:40:43.773Z,86.27
2023-03-30T15:43:22.706Z,86.01
2023-03-30T15:46:06.261Z,85.67
2023-03-30T15:48:43.357Z,84.25
2023-03-30T15:51:22.019Z,84.02
2023-03-30T15:53:56.869Z,84.35
2023-03-30T15:56:29.644Z,85.22
2023-03-30T15:58:57.994Z,83.69
2023-03-30T16:01:38.837Z,84.09
2023-03-30T16:04:06.387Z,84.11
2023-03-30T16:06:33.034Z,84.32
2023-03-30T16:08:59.697Z,83.52
2023-03-30T16:11:26.702Z,82.94
2023-03-30T16:13:54.411Z,83.86
2023-03-30T16:16:21.752Z,84.70
2023-03-30T16:18:48.612Z,82.23
2023-03-30T16:21:15.948Z,81.91
2023-03-30T16:23:42.785Z,82.32
2023-03-30T16:26:12.103Z,83.38
2023-03-30T16:28:40.804Z,82.55
2023-03-30T16:31:17.537Z,81.93
2023-03-30T16:33:44.501Z,82.69
2023-03-30T16:36:17.666Z,82.11
2023-03-30T16:38:44.872Z,81.35
2023-03-30T16:41:17.770Z,81.56
2023-03-30T16:43:44.692Z,82.12
2023-03-30T16:46:17.534Z,81.90
2023-03-30T16:48:45.932Z,82.49
2023-03-30T16:51:14.915Z,82.25
2023-03-30T16:53:42.246Z,82.74
2023-03-30T16:56:18.979Z,83.75
2023-03-30T16:58:47.088Z,83.10
2023-03-30T17:01:18.358Z,83.08
2023-03-30T17:03:45.965Z,82.62
2023-03-30T17:06:14.189Z,83.76
2023-03-30T17:08:42.903Z,84.08
2023-03-30T17:11:13.628Z,84.86
2023-03-30T17:13:41.309Z,85.30
2023-03-30T17:16:09.178Z,85.70
2023-03-30T17:18:35.898Z,85.70
2023-03-30T17:21:02.721Z,85.96
2023-03-30T17:23:34.833Z,86.69
2023-03-30T17:26:02.531Z,86.94
2023-03-30T17:28:29.280Z,87.57
2023-03-30T17:30:58.592Z,87.85
2023-03-30T17:33:26.286Z,87.82
2023-03-30T17:36:01.976Z,88.83
2023-03-30T17:38:30.012Z,88.26
2023-03-30T17:40:56.958Z,88.88
2023-03-30T17:43:23.915Z,88.20
2023-03-30T17:45:50.731Z,88.52
2023-03-30T17:48:20.200Z,87.55
2023-03-30T17:50:49.853Z,87.51
2023-03-30T17:53:18.252Z,88.45
2023-03-30T17:55:46.987Z,88.87
2023-03-30T17:58:21.138Z,89.32
2023-03-30T18:00:49.442Z,90.63
2023-03-30T18:03:17.420Z,91.03
2023-03-30T18:05:44.899Z,90.82
2023-03-30T18:08:17.867Z,91.02
2023-03-30T18:10:48.120Z,90.60
2023-03-30T18:13:16.881Z,91.79
2023-03-30T18:15:46.235Z,92.37
2023-03-30T18:18:13.453Z,93.45
2023-03-30T18:20:46.937Z,93.62
2023-03-30T18:23:13.440Z,93.25
2023-03-30T18:25:40.082Z,93.65
2023-03-30T18:28:15.183Z,93.33
2023-03-30T18:30:42.362Z,92.97
2023-03-30T18:33:08.991Z,93.42
2023-03-30T18:35:37.294Z,92.98
2023-03-30T18:38:04.808Z,92.91
2023-03-30T18:40:37.248Z,94.18
2023-03-30T18:43:05.274Z,94.49
2023-03-30T18:45:38.159Z,94.81
2023-03-30T18:48:07.026Z,95.66
2023-03-30T18:50:37.958Z,95.66
2023-03-30T18:53:07.082Z,96.39
2023-03-30T18:55:36.775Z,96.58
2023-03-30T18:58:06.748Z,97.14
2023-03-30T19:00:34.973Z,98.44
2023-03-30T19:03:05.040Z,99.36
2023-03-30T19:05:33.672Z,99.13
2023-03-30T19:08:00.226Z,98.88
2023-03-30T19:10:36.502Z,99.09
2023-03-30T19:13:03.557Z,99.82
2023-03-30T19:15:33.747Z,100.00
2023-03-30T19:18:01.707Z,99.89
2023-03-30T19:20:30.529Z,100.00
2023-03-30T19:22:57.408Z,100.00
2023-03-30T19:25:26.062Z,100.00
2023-03-30T19:28:03.397Z,100.00
2023-03-30T19:30:33.633Z,100.00
2023-03-30T19:33:04.310Z,100.00
2023-03-30T19:35:31.605Z,100.00
2023-03-30T19:37:58.318Z,100.00
2023-03-30T19:40:25.152Z,100.00
2023-03-30T19:42:51.831Z,100.00
2023-03-30T19:45:21.624Z,100.00
2023-03-30T19:47:48.332Z,100.00
2023-03-30T19:50:18.201Z,100.00
2023-03-30T19:52:48.860Z,100.00
2023-03-30T19:55:16.246Z,100.00
2023-03-30T19:57:42.952Z,100.00
2023-03-30T20:00:15.964Z,100.00
2023-03-30T20:02:45.568Z,100.00
2023-03-30T20:05:16.062Z,100.00
2023-03-30T20:07:44.858Z,100.00
2023-03-30T20:10:15.143Z,100.00
2023-03-30T20:12:42.031Z,100.00
2023-03-30T20:15:09.939Z,100.00
2023-03-30T20:17:38.221Z,100.00
2023-03-30T20:20:08.811Z,100.00
2023-03-30T20:22:36.965Z,100.00
2023-03-30T20:25:05.954Z,100.00
2023-03-30T20:27:33.936Z,100.00
2023-03-30T20:30:01.291Z,100.00
2023-03-30T20:32:28.097Z,100.00
2023-03-30T20:34:54.914Z,100.00
2023-03-30T20:37:21.603Z,100.00
2023-03-30T20:39:50.081Z,100.00
2023-03-30T20:42:18.277Z,100.00
2023-03-30T20:44:50.477Z,100.00
2023-03-30T20:47:23.423Z,100.00
2023-03-30T20:49:50.383Z,100.00
2023-03-30T20:52:17.095Z,100.00
2023-03-30T20:54:44.898Z,100.00
2023-03-30T20:57:12.494Z,100.00
2023-03-30T20:59:39.730Z,100.00
2023-03-30T21:02:07.341Z,100.00
2023-03-30T21:04:34.259Z,100.00
2023-03-30T21:07:01.006Z,100.00
2023-03-30T21:09:28.163Z,100.00
2023-03-30T21:11:54.929Z,100.00
2023-03-30T21:14:24.054Z,100.00
2023-03-30T21:16:51.098Z,100.00
2023-03-30T21:19:17.885Z,100.00
2023-03-30T21:21:44.804Z,100.00
2023-03-30T21:24:12.101Z,100.00
2023-03-30T21:26:38.786Z,100.00
2023-03-30T21:29:05.985Z,100.00
2023-03-30T21:31:33.151Z,100.00
2023-03-30T21:34:00.119Z,100.00
2023-03-30T21:36:27.475Z,100.00
2023-03-30T21:38:56.042Z,100.00
2023-03-30T21:41:24.432Z,100.00
2023-03-30T21:43:51.162Z,100.00
2023-03-30T21:46:21.067Z,100.00
2023-03-30T21:48:51.779Z,100.00
2023-03-30T21:51:21.511Z,100.00
2023-03-30T21:53:50.689Z,100.00
2023-03-30T21:56:19.227Z,100.00
2023-03-30T21:58:46.015Z,100.00
2023-03-30T22:01:13.046Z,100.00
2023-03-30T22:03:42.024Z,100.00
2023-03-30T22:06:11.746Z,100.00
2023-03-30T22:08:38.517Z,100.00
2023-03-30T22:11:11.687Z,100.00
2023-03-30T22:13:38.421Z,100.00
2023-03-30T22:16:14.191Z,100.00
2023-03-30T22:18:41.459Z,100.00
2023-03-30T22:21:11.872Z,100.00
2023-03-30T22:23:38.404Z,100.00
2023-03-30T22:26:05.177Z,100.00
2023-03-30T22:28:32.146Z,100.00
2023-03-30T22:30:58.754Z,100.00
2023-03-30T22:33:27.801Z,100.00
2023-03-30T22:35:54.626Z,100.00
2023-03-30T22:38:21.405Z,100.00
2023-03-30T22:40:47.958Z,100.00
2023-03-30T22:43:14.633Z,100.00
2023-03-30T22:45:43.648Z,100.00
2023-03-30T22:48:10.367Z,100.00
2023-03-30T22:50:37.018Z,100.00
2023-03-30T22:53:03.925Z,100.00
2023-03-30T22:55:30.655Z,100.00
2023-03-30T22:57:57.880Z,100.00
2023-03-30T23:00:24.767Z,100.00
2023-03-30T23:02:51.992Z,100.00
2023-03-30T23:05:21.301Z,100.00
2023-03-30T23:07:49.520Z,100.00
2023-03-30T23:10:22.358Z,100.00
2023-03-30T23:12:49.263Z,100.00
2023-03-30T23:15:18.534Z,100.00
2023-03-30T23:17:47.733Z,100.00
2023-03-30T23:20:15.451Z,100.00
2023-03-30T23:22:42.624Z,100.00
2023-03-30T23:25:10.047Z,100.00
2023-03-30T23:27:37.724Z,100.00
2023-03-30T23:30:05.593Z,100.00
2023-03-30T23:32:34.111Z,100.00
2023-03-30T23:35:01.435Z,100.00
2023-03-30T23:37:30.307Z,100.00
2023-03-30T23:40:01.943Z,100.00
2023-03-30T23:42:29.223Z,100.00
2023-03-30T23:44:56.336Z,100.00
2023-03-30T23:47:23.174Z,100.00
2023-03-30T23:49:50.034Z,100.00
2023-03-30T23:52:16.718Z,100.00
2023-03-30T23:54:43.252Z,100.00
2023-03-30T23:57:09.911Z,100.00
2023-03-30T23:59:37.354Z,100.00
